| Date | Time | Temp. (oF) | Dew Point (oF) | Rel. Hum. (%) | Press. (in.) | Wind Dir. | Wind Speed (mph) | Hourly Rainfall (in.) |
|
|---|---|---|---|---|---|---|---|---|---|
| 1 | 01/10 | 00:00 | 33 | 31 | 95 | 30.02 | SW | 4 | 0.00 |
| 2 | 01/09 | 23:00 | 33 | 30 | 91 | 30.05 | WSW | 3 | 0.00 |
| 3 | 01/09 | 22:00 | 33 | 28 | 85 | 30.06 | SSW | 5 | 0.00 |
| 4 | 01/09 | 21:00 | 33 | 26 | 77 | 30.09 | SW | 1 | 0.00 |
| 5 | 01/09 | 20:00 | 33 | 25 | 73 | 30.10 | SW | 3 | 0.00 |
| 6 | 01/09 | 19:00 | 33 | 23 | 67 | 30.12 | S | 5 | 0.00 |
| 7 | 01/09 | 18:00 | 34 | 24 | 68 | 30.13 | SSW | 5 | 0.00 |
| 8 | 01/09 | 17:00 | 34 | 24 | 67 | 30.14 | S | 4 | 0.00 |
| 9 | 01/09 | 16:00 | 35 | 23 | 63 | 30.15 | SSW | 4 | 0.00 |
| 10 | 01/09 | 15:00 | 36 | 23 | 60 | 30.16 | S | 2 | 0.00 |
| 11 | 01/09 | 14:00 | 36 | 21 | 55 | 30.17 | S | 5 | 0.00 |
| 12 | 01/09 | 13:00 | 37 | 23 | 58 | 30.22 | NW | 2 | 0.00 |
| 13 | 01/09 | 12:00 | 36 | 24 | 64 | 30.26 | SW | 2 | 0.00 |
| 14 | 01/09 | 11:00 | 34 | 28 | 79 | 30.30 | ENE | 3 | 0.00 |
| 15 | 01/09 | 10:00 | 30 | 27 | 89 | 30.34 | SE | 1 | 0.00 |
| 16 | 01/09 | 09:00 | 26 | 26 | 100 | 30.34 | SSW | 0 | 0.00 |
| 17 | 01/09 | 08:00 | 24 | 23 | 100 | 30.34 | NNE | 1 | 0.00 |
| 18 | 01/09 | 07:00 | 24 | 23 | 100 | 30.35 | SSW | 0 | 0.00 |
| 19 | 01/09 | 06:00 | 24 | 23 | 100 | 30.36 | ENE | 0 | 0.00 |
| 20 | 01/09 | 05:00 | 25 | 24 | 99 | 30.34 | WSW | 0 | 0.00 |
| 21 | 01/09 | 04:00 | 25 | 24 | 100 | 30.33 | ENE | 2 | 0.00 |
| 22 | 01/09 | 03:00 | 24 | 23 | 99 | 30.37 | SW | 1 | 0.00 |
| 23 | 01/09 | 02:00 | 24 | 23 | 100 | 30.36 | SSW | 0 | 0.00 |
| 24 | 01/09 | 01:00 | 24 | 22 | 95 | 30.35 | SSW | 0 | 0.00 |